Time;durP1;ratioP1;P1;durP2;ratioP2;P2;SDS_P1;SDS_P2;PMS_P1;PMS_P2;Temp;Humidity;BMP_temperature;BMP_pressure;BME280_temperature;BME280_humidity;BME280_pressure;Samples;Min_cycle;Max_cycle;Signal;HPM_P1;HPM_P2
2022/06/26 00:01:21;;;;;;;3.28;2.25;;;17.70;99.90;;;;;;5115225;28;20024;-56
2022/06/26 00:03:47;;;;;;;4.50;2.22;;;17.80;99.90;;;;;;5114940;28;20035;-56
2022/06/26 00:06:13;;;;;;;3.78;2.40;;;17.70;99.90;;;;;;5115082;28;20430;-56
2022/06/26 00:08:39;;;;;;;6.05;3.00;;;17.70;99.90;;;;;;5115041;28;20035;-56
2022/06/26 00:11:05;;;;;;;6.82;3.30;;;17.60;99.90;;;;;;5114966;28;20107;-57
2022/06/26 00:13:31;;;;;;;4.88;2.63;;;17.50;99.90;;;;;;5114744;28;20500;-56
2022/06/26 00:15:57;;;;;;;5.75;2.70;;;17.50;99.90;;;;;;5115022;28;20042;-56
2022/06/26 00:18:23;;;;;;;6.32;2.90;;;17.40;99.90;;;;;;5115012;28;20085;-56
2022/06/26 00:20:49;;;;;;;5.05;2.58;;;17.30;99.90;;;;;;5114959;28;20376;-56
2022/06/26 00:23:15;;;;;;;6.25;3.15;;;17.20;99.90;;;;;;5114676;28;20035;-57
2022/06/26 00:25:41;;;;;;;4.38;2.90;;;17.20;99.90;;;;;;5114647;28;20028;-56
2022/06/26 00:28:07;;;;;;;4.78;2.83;;;17.20;99.90;;;;;;5114916;28;20115;-56
2022/06/26 00:30:33;;;;;;;5.07;3.20;;;17.20;99.90;;;;;;5113500;28;20031;-56
2022/06/26 00:32:58;;;;;;;8.27;2.75;;;17.20;99.90;;;;;;5114978;28;20085;-56
2022/06/26 00:35:24;;;;;;;5.72;2.90;;;17.20;99.90;;;;;;5114862;28;20031;-56
2022/06/26 00:37:50;;;;;;;6.25;3.05;;;17.20;99.90;;;;;;5114909;28;20024;-56
2022/06/26 00:40:16;;;;;;;9.48;3.00;;;17.30;99.90;;;;;;5114576;28;20031;-56
2022/06/26 00:42:42;;;;;;;3.50;2.70;;;17.40;99.90;;;;;;5113307;28;20067;-56
2022/06/26 00:45:09;;;;;;;5.47;3.13;;;17.40;99.90;;;;;;5114766;28;20028;-57
2022/06/26 00:47:35;;;;;;;6.05;2.95;;;17.40;99.90;;;;;;5113383;28;20022;-56
2022/06/26 00:50:05;;;;;;;4.38;3.10;;;17.20;99.90;;;;;;5118328;28;20024;-56
2022/06/26 00:52:33;;;;;;;5.80;3.22;;;17.10;99.90;;;;;;5117171;28;20047;-56
2022/06/26 00:54:59;;;;;;;6.07;3.30;;;17.10;99.90;;;;;;5118441;28;20469;-56
2022/06/26 00:57:26;;;;;;;8.07;3.60;;;17.10;99.90;;;;;;5118539;28;20024;-56
2022/06/26 00:59:51;;;;;;;5.78;3.63;;;17.00;99.90;;;;;;5117166;28;20081;-57
2022/06/26 01:02:17;;;;;;;5.63;3.92;;;17.10;99.90;;;;;;5118154;28;20524;-56
2022/06/26 01:04:43;;;;;;;8.38;3.17;;;17.10;99.90;;;;;;5118238;28;20034;-56
2022/06/26 01:07:11;;;;;;;5.85;3.20;;;17.10;99.90;;;;;;5118198;28;20023;-56
2022/06/26 01:09:37;;;;;;;4.90;3.10;;;17.00;99.90;;;;;;5118178;28;20023;-56
2022/06/26 01:12:05;;;;;;;5.07;3.20;;;17.00;99.90;;;;;;5118075;28;20044;-56
2022/06/26 01:14:31;;;;;;;4.22;3.33;;;16.90;99.90;;;;;;5116796;28;20055;-56
2022/06/26 01:16:59;;;;;;;4.13;2.88;;;16.90;99.90;;;;;;5116726;28;20043;-56
2022/06/26 01:19:26;;;;;;;5.60;3.33;;;16.90;99.90;;;;;;5118033;28;20027;-56
2022/06/26 01:21:52;;;;;;;5.45;3.40;;;16.90;99.90;;;;;;5116469;28;20031;-56
2022/06/26 01:24:18;;;;;;;6.68;3.58;;;16.90;99.90;;;;;;5117979;28;20062;-56
2022/06/26 01:26:44;;;;;;;6.28;3.33;;;16.90;99.90;;;;;;5116565;28;20030;-56
2022/06/26 01:29:11;;;;;;;6.18;2.97;;;16.80;99.90;;;;;;5117706;28;20027;-56
2022/06/26 01:31:38;;;;;;;3.78;3.00;;;16.90;99.90;;;;;;5116487;28;20028;-56
2022/06/26 01:34:07;;;;;;;6.28;3.15;;;16.80;99.90;;;;;;5116297;28;20046;-56
2022/06/26 01:36:33;;;;;;;6.00;3.20;;;16.80;99.90;;;;;;5116335;28;20039;-57
2022/06/26 01:39:01;;;;;;;5.80;3.60;;;16.80;99.90;;;;;;5116265;28;20122;-56
2022/06/26 01:41:27;;;;;;;7.45;3.25;;;16.80;99.90;;;;;;5117435;28;20048;-57
2022/06/26 01:43:53;;;;;;;6.68;4.10;;;16.80;99.90;;;;;;5117532;28;20034;-56
2022/06/26 01:46:20;;;;;;;6.05;4.07;;;16.80;99.90;;;;;;5117628;28;20447;-57
2022/06/26 01:48:47;;;;;;;5.90;3.72;;;16.80;99.90;;;;;;5116019;28;20024;-57
2022/06/26 01:51:14;;;;;;;5.95;3.70;;;16.80;99.90;;;;;;5116131;28;20024;-57
2022/06/26 01:53:42;;;;;;;3.80;3.00;;;16.80;99.90;;;;;;5117375;28;20054;-57
2022/06/26 01:56:09;;;;;;;4.75;3.35;;;16.90;99.90;;;;;;5116098;28;20024;-56
2022/06/26 01:58:42;;;;;;;8.27;3.53;;;16.90;99.90;;;;;;5115988;28;20114;-56
2022/06/26 02:01:12;;;;;;;6.22;3.35;;;16.90;99.90;;;;;;5115890;28;20114;-56
2022/06/26 02:03:38;;;;;;;7.45;4.03;;;16.80;99.90;;;;;;5115747;28;20119;-56
2022/06/26 02:06:04;;;;;;;4.93;3.40;;;16.80;99.90;;;;;;5116015;28;20540;-56
2022/06/26 02:08:31;;;;;;;8.40;3.28;;;16.80;99.90;;;;;;5115898;28;20027;-56
2022/06/26 02:13:43;;;;;;;5.38;3.53;;;16.80;99.90;;;;;;5115770;28;20367;-56
2022/06/26 02:16:15;;;;;;;6.13;3.75;;;16.80;99.90;;;;;;5115511;28;20019;-57
2022/06/26 02:18:45;;;;;;;5.80;3.45;;;16.80;99.90;;;;;;5115552;28;20145;-56
2022/06/26 02:21:12;;;;;;;5.55;3.80;;;16.80;99.90;;;;;;5115570;28;20023;-57
2022/06/26 02:23:40;;;;;;;6.35;4.00;;;16.80;99.90;;;;;;5116847;28;20030;-56
2022/06/26 02:26:08;;;;;;;4.75;3.28;;;16.70;99.90;;;;;;5115494;28;20041;-56
2022/06/26 02:28:35;;;;;;;6.55;3.35;;;16.80;99.90;;;;;;5115278;28;20063;-56
2022/06/26 02:31:01;;;;;;;5.82;3.30;;;16.70;99.90;;;;;;5115343;28;20028;-56
2022/06/26 02:33:29;;;;;;;6.60;3.40;;;16.80;99.90;;;;;;5115395;28;20104;-57
2022/06/26 02:35:55;;;;;;;8.18;3.58;;;16.80;99.90;;;;;;5116648;28;20030;-56
2022/06/26 02:38:23;;;;;;;5.55;4.10;;;16.70;99.90;;;;;;5115403;28;20101;-56
2022/06/26 02:40:52;;;;;;;7.47;3.50;;;16.70;99.90;;;;;;5115007;28;20028;-56
2022/06/26 02:43:19;;;;;;;5.65;3.45;;;16.80;99.90;;;;;;5116265;28;20059;-56
2022/06/26 02:45:46;;;;;;;4.95;3.78;;;16.80;99.90;;;;;;5115310;28;20029;-56
2022/06/26 02:48:12;;;;;;;6.15;3.60;;;16.70;99.90;;;;;;5114940;28;20103;-56
2022/06/26 02:50:40;;;;;;;9.57;4.13;;;16.70;99.90;;;;;;5114995;28;20110;-57
2022/06/26 02:53:09;;;;;;;11.27;4.03;;;16.70;99.90;;;;;;5114814;28;20031;-56
2022/06/26 02:55:35;;;;;;;8.82;4.07;;;16.70;99.90;;;;;;5114798;28;20032;-56
2022/06/26 02:58:02;;;;;;;7.18;4.07;;;16.70;99.90;;;;;;5114806;28;20515;-56
2022/06/26 03:00:32;;;;;;;8.52;4.05;;;16.70;99.90;;;;;;5114744;28;20036;-56
2022/06/26 03:03:01;;;;;;;8.13;4.25;;;16.60;99.90;;;;;;5115872;28;20034;-56
2022/06/26 03:05:29;;;;;;;6.53;3.95;;;16.60;99.90;;;;;;5115927;28;20031;-56
2022/06/26 03:07:56;;;;;;;10.02;4.00;;;16.60;99.90;;;;;;5115836;28;20023;-56
2022/06/26 03:10:23;;;;;;;8.95;3.95;;;16.70;99.90;;;;;;5114469;28;20035;-57
2022/06/26 03:12:49;;;;;;;5.82;3.22;;;16.70;99.90;;;;;;5115347;28;20131;-57
2022/06/26 03:15:16;;;;;;;9.73;3.97;;;16.80;99.90;;;;;;5115729;28;20488;-56
2022/06/26 03:17:43;;;;;;;8.73;3.40;;;16.80;99.90;;;;;;5114386;28;20027;-56
2022/06/26 03:20:11;;;;;;;6.47;3.53;;;16.80;99.90;;;;;;5114448;28;20023;-56
2022/06/26 03:22:41;;;;;;;6.72;3.85;;;16.70;99.90;;;;;;5114285;28;20051;-56
2022/06/26 03:25:08;;;;;;;6.28;3.60;;;16.60;99.90;;;;;;5114261;28;20023;-56
2022/06/26 03:27:36;;;;;;;3.78;3.20;;;16.50;99.90;;;;;;5114251;28;20480;-56
2022/06/26 03:30:04;;;;;;;6.40;3.78;;;16.50;99.90;;;;;;5114178;28;20484;-56
2022/06/26 03:32:30;;;;;;;7.63;3.85;;;16.60;99.90;;;;;;5114256;28;20039;-57
2022/06/26 03:35:03;;;;;;;5.95;3.83;;;16.60;99.90;;;;;;5114148;28;20122;-56
2022/06/26 03:37:29;;;;;;;5.63;4.00;;;16.70;99.90;;;;;;5114084;28;20095;-56
2022/06/26 03:39:57;;;;;;;5.97;3.88;;;16.80;99.90;;;;;;5114078;28;20031;-56
2022/06/26 03:42:23;;;;;;;9.00;4.43;;;16.80;99.90;;;;;;5114011;28;20024;-56
2022/06/26 03:44:49;;;;;;;7.28;3.90;;;16.80;99.90;;;;;;5113957;28;20164;-56
2022/06/26 03:47:17;;;;;;;8.07;4.43;;;16.90;99.90;;;;;;5113859;28;20059;-57
2022/06/26 03:49:52;;;;;;;9.43;4.15;;;16.80;99.90;;;;;;5113791;28;20491;-57
2022/06/26 03:52:23;;;;;;;7.97;4.13;;;16.80;99.90;;;;;;5113869;28;20031;-57
2022/06/26 03:54:52;;;;;;;6.30;4.13;;;16.80;99.90;;;;;;5113882;28;20027;-57
2022/06/26 03:57:21;;;;;;;10.07;4.88;;;16.80;99.90;;;;;;5113813;28;20047;-57
2022/06/26 03:59:49;;;;;;;19.10;6.55;;;16.80;99.90;;;;;;5113833;28;20030;-57
2022/06/26 04:02:28;;;;;;;15.43;5.28;;;16.80;99.90;;;;;;5113584;28;20369;-57
2022/06/26 04:04:53;;;;;;;13.88;5.07;;;16.80;99.90;;;;;;5113679;28;20028;-57
2022/06/26 04:07:20;;;;;;;16.27;4.78;;;16.80;99.90;;;;;;5113753;28;20024;-57
2022/06/26 04:09:51;;;;;;;20.00;5.80;;;16.70;99.90;;;;;;5113782;28;20034;-57
2022/06/26 04:12:20;;;;;;;14.07;5.38;;;16.80;99.90;;;;;;5113636;28;20381;-56
2022/06/26 04:14:47;;;;;;;11.07;4.53;;;16.80;99.90;;;;;;5113663;28;20080;-56
2022/06/26 04:17:14;;;;;;;10.77;5.10;;;16.90;99.90;;;;;;5113605;28;20063;-56
2022/06/26 04:19:49;;;;;;;10.27;4.78;;;16.90;99.90;;;;;;5113625;28;20039;-57
2022/06/26 04:22:16;;;;;;;11.23;4.88;;;16.90;99.90;;;;;;5113476;28;20027;-57
2022/06/26 04:24:42;;;;;;;11.40;5.10;;;17.00;99.90;;;;;;5116956;28;20085;-57
2022/06/26 04:27:09;;;;;;;10.98;5.10;;;17.10;99.90;;;;;;5117701;28;20473;-57
2022/06/26 04:29:35;;;;;;;9.68;4.55;;;17.20;99.90;;;;;;5117680;28;20049;-57
2022/06/26 04:32:01;;;;;;;17.20;5.68;;;17.20;99.90;;;;;;5117696;28;20061;-57
2022/06/26 04:34:30;;;;;;;10.50;5.10;;;17.40;99.90;;;;;;5117695;28;20232;-57
2022/06/26 04:36:56;;;;;;;11.13;5.38;;;17.50;99.90;;;;;;5118841;28;20548;-57
2022/06/26 04:39:25;;;;;;;9.75;5.22;;;17.50;99.90;;;;;;5117571;28;20031;-57
2022/06/26 04:41:51;;;;;;;13.48;6.72;;;17.60;99.90;;;;;;5118545;28;20028;-56
2022/06/26 04:44:18;;;;;;;13.77;6.03;;;17.60;99.90;;;;;;5117418;28;20036;-57
2022/06/26 04:46:49;;;;;;;10.57;5.65;;;17.90;99.90;;;;;;5117411;28;20396;-56
2022/06/26 04:49:15;;;;;;;13.30;6.18;;;18.00;99.90;;;;;;5117321;28;20048;-57
2022/06/26 04:51:41;;;;;;;11.20;6.40;;;18.00;99.90;;;;;;5117371;28;20507;-57
2022/06/26 04:54:26;;;;;;;9.63;6.22;;;17.90;99.90;;;;;;5117089;28;20066;-57
2022/06/26 04:56:52;;;;;;;10.57;6.63;;;17.90;99.90;;;;;;5117316;28;20028;-57
2022/06/26 04:59:18;;;;;;;11.40;5.68;;;18.10;99.90;;;;;;5117206;28;20035;-57
2022/06/26 05:01:44;;;;;;;11.27;6.75;;;18.20;99.90;;;;;;5118264;28;20042;-57
2022/06/26 05:04:13;;;;;;;9.50;6.60;;;18.40;99.90;;;;;;5118371;28;20400;-57
2022/06/26 05:07:08;;;;;;;9.25;5.68;;;18.50;99.90;;;;;;5080110;28;20032;-57
2022/06/26 05:09:37;;;;;;;11.02;6.20;;;18.60;99.90;;;;;;5117028;28;20047;-57
2022/06/26 05:12:03;;;;;;;11.57;5.95;;;18.80;99.90;;;;;;5117960;28;20051;-57
2022/06/26 05:14:43;;;;;;;11.48;5.90;;;18.70;99.90;;;;;;5116964;28;20498;-57
2022/06/26 05:17:26;;;;;;;12.50;6.40;;;18.90;99.90;;;;;;5116703;28;20042;-56
2022/06/26 05:19:52;;;;;;;10.38;5.82;;;19.10;99.90;;;;;;5118041;28;20028;-57
2022/06/26 05:22:23;;;;;;;11.38;5.90;;;19.20;99.90;;;;;;5116629;28;20106;-57
2022/06/26 05:24:49;;;;;;;12.52;6.18;;;19.30;99.90;;;;;;5116499;28;20031;-57
2022/06/26 05:27:15;;;;;;;9.60;5.72;;;19.30;99.90;;;;;;5116520;28;20373;-57
2022/06/26 05:29:41;;;;;;;12.73;6.15;;;19.40;99.90;;;;;;5117792;28;20030;-57
2022/06/26 05:32:07;;;;;;;14.00;5.65;;;19.40;99.90;;;;;;5116521;28;20028;-57
2022/06/26 05:34:33;;;;;;;14.38;6.22;;;19.60;99.90;;;;;;5115990;28;20035;-57
2022/06/26 05:37:00;;;;;;;9.27;5.80;;;19.70;99.90;;;;;;5117665;28;20523;-57
2022/06/26 05:39:26;;;;;;;9.55;5.20;;;19.80;99.90;;;;;;5116305;28;20036;-57
2022/06/26 05:41:53;;;;;;;13.45;5.25;;;19.80;99.90;;;;;;5116213;28;20027;-57
2022/06/26 05:44:19;;;;;;;14.20;4.82;;;20.00;99.90;;;;;;5116199;28;20031;-57
2022/06/26 05:46:48;;;;;;;10.32;5.03;;;20.00;99.90;;;;;;5116247;28;20520;-57
2022/06/26 05:49:36;;;;;;;9.90;4.90;;;20.10;99.90;;;;;;5116119;28;20027;-57
2022/06/26 05:52:19;;;;;;;9.30;6.03;;;20.30;99.90;;;;;;5116051;28;20373;-57
2022/06/26 05:54:53;;;;;;;7.97;4.88;;;20.50;99.90;;;;;;5116249;28;20039;-57
2022/06/26 05:57:35;;;;;;;9.93;4.63;;;20.80;99.90;;;;;;5115952;28;20034;-57
2022/06/26 06:00:24;;;;;;;8.65;5.00;;;21.00;99.90;;;;;;5117148;28;20034;-57
2022/06/26 06:02:53;;;;;;;9.18;6.10;;;21.00;99.90;;;;;;5115730;28;20141;-57
2022/06/26 06:05:20;;;;;;;10.00;4.97;;;21.20;99.90;;;;;;5115765;28;20036;-57
2022/06/26 06:07:47;;;;;;;7.20;4.65;;;21.40;99.90;;;;;;5115805;28;20023;-57
2022/06/26 06:10:13;;;;;;;8.52;4.88;;;21.60;99.90;;;;;;5115784;28;20061;-57
2022/06/26 06:12:41;;;;;;;11.80;5.22;;;21.70;99.90;;;;;;5115554;28;20093;-57
2022/06/26 06:15:08;;;;;;;11.82;4.93;;;21.70;99.90;;;;;;5115666;28;20426;-57
2022/06/26 06:17:37;;;;;;;9.57;4.75;;;22.00;99.90;;;;;;5115575;28;20036;-57
2022/06/26 06:20:06;;;;;;;11.88;4.90;;;22.20;99.90;;;;;;5115600;28;20063;-56
2022/06/26 06:22:41;;;;;;;6.60;4.50;;;22.30;99.90;;;;;;5115445;28;20082;-57
2022/06/26 06:25:08;;;;;;;7.82;4.28;;;22.30;99.90;;;;;;5115256;28;20048;-57
2022/06/26 06:27:34;;;;;;;8.75;4.60;;;22.40;99.90;;;;;;5115411;28;20027;-57
2022/06/26 06:30:07;;;;;;;9.90;4.22;;;22.30;99.90;;;;;;5115291;28;20046;-57
2022/06/26 06:32:34;;;;;;;7.78;4.53;;;22.50;99.90;;;;;;5115314;28;20518;-57
2022/06/26 06:35:00;;;;;;;10.65;4.50;;;22.60;99.90;;;;;;5115209;28;20119;-57
2022/06/26 06:37:26;;;;;;;12.45;5.15;;;22.80;99.90;;;;;;5116527;28;20103;-57
2022/06/26 06:39:53;;;;;;;8.30;4.10;;;22.90;99.90;;;;;;5115117;28;20036;-57
2022/06/26 06:42:20;;;;;;;10.35;4.68;;;23.10;99.90;;;;;;5115127;28;20024;-57
2022/06/26 06:44:46;;;;;;;7.47;4.18;;;23.20;99.90;;;;;;5114982;28;20039;-57
2022/06/26 06:47:32;;;;;;;9.88;4.72;;;23.20;99.90;;;;;;5115118;28;20028;-57
2022/06/26 06:50:21;;;;;;;9.40;5.07;;;23.30;99.90;;;;;;5096110;28;20024;-57
2022/06/26 06:52:47;;;;;;;5.65;4.10;;;23.40;99.90;;;;;;5116187;28;20032;-57
2022/06/26 06:55:14;;;;;;;15.05;4.13;;;23.60;99.90;;;;;;5114913;28;20110;-57
2022/06/26 06:57:40;;;;;;;10.48;4.47;;;23.60;99.90;;;;;;5114920;28;20564;-57
2022/06/26 07:00:07;;;;;;;7.93;4.75;;;23.80;99.90;;;;;;5114816;28;20024;-57
2022/06/26 07:02:37;;;;;;;10.38;4.43;;;24.00;99.90;;;;;;5114645;28;20040;-57
2022/06/26 07:05:04;;;;;;;7.63;4.25;;;24.00;99.90;;;;;;5114747;28;20063;-57
2022/06/26 07:07:30;;;;;;;9.88;4.78;;;23.90;99.90;;;;;;5114658;28;20047;-57
2022/06/26 07:09:55;;;;;;;6.15;4.00;;;24.00;99.90;;;;;;5114616;28;20031;-57
2022/06/26 07:12:23;;;;;;;9.85;4.15;;;24.10;99.90;;;;;;5114350;28;20415;-57
2022/06/26 07:14:50;;;;;;;8.95;3.70;;;24.10;99.90;;;;;;5114514;28;20409;-57
2022/06/26 07:17:16;;;;;;;9.93;4.20;;;24.30;99.90;;;;;;5114292;28;20028;-57
2022/06/26 07:19:42;;;;;;;13.98;3.60;;;24.50;99.90;;;;;;5115801;28;20027;-57
2022/06/26 07:22:09;;;;;;;7.03;3.80;;;24.60;99.90;;;;;;5115554;28;20077;-57
2022/06/26 07:24:36;;;;;;;8.45;4.05;;;24.70;99.90;;;;;;5114344;28;20019;-57
2022/06/26 07:27:17;;;;;;;;;;;24.80;99.90;;;;;;5114812;28;20181;-57
2022/06/26 07:29:44;;;;;;;8.38;3.83;;;25.10;99.90;;;;;;5114240;28;20387;-57
2022/06/26 07:32:11;;;;;;;6.88;3.88;;;25.20;99.90;;;;;;5114343;28;20072;-57
2022/06/26 07:34:37;;;;;;;9.18;3.92;;;25.20;99.90;;;;;;5114229;28;20038;-57
2022/06/26 07:37:03;;;;;;;7.88;4.00;;;25.70;99.90;;;;;;5114143;28;20529;-57
2022/06/26 07:39:31;;;;;;;9.68;4.28;;;26.00;99.10;;;;;;5114054;28;20027;-57
2022/06/26 07:41:58;;;;;;;13.15;5.32;;;26.40;93.80;;;;;;5114216;28;20124;-57
2022/06/26 07:44:29;;;;;;;11.68;4.40;;;26.80;90.60;;;;;;5113981;28;20033;-57
2022/06/26 07:46:57;;;;;;;9.52;4.50;;;26.90;91.20;;;;;;5114030;28;20028;-57
2022/06/26 07:49:32;;;;;;;10.05;4.28;;;27.40;94.00;;;;;;5113962;28;20023;-57
2022/06/26 07:52:00;;;;;;;11.35;4.60;;;27.60;79.60;;;;;;5113920;28;20107;-57
2022/06/26 07:54:26;;;;;;;19.27;6.63;;;27.60;87.40;;;;;;5115198;28;20080;-57
2022/06/26 07:56:52;;;;;;;24.17;7.22;;;27.80;77.80;;;;;;5115094;28;20028;-57
2022/06/26 07:59:18;;;;;;;14.00;4.50;;;27.80;70.00;;;;;;5115156;28;20047;-57
2022/06/26 08:01:45;;;;;;;15.52;5.47;;;27.90;68.10;;;;;;5115005;28;20031;-58
2022/06/26 08:04:11;;;;;;;25.77;7.25;;;28.00;72.70;;;;;;5115014;28;20012;-57
2022/06/26 08:06:37;;;;;;;34.33;9.93;;;28.20;64.80;;;;;;5115197;28;20032;-58
2022/06/26 08:09:03;;;;;;;24.42;7.68;;;28.60;67.10;;;;;;5114958;28;20034;-58
2022/06/26 08:11:33;;;;;;;;;;;29.00;69.40;;;;;;5113973;28;20038;-58
2022/06/26 08:13:59;;;;;;;22.80;6.93;;;29.40;66.60;;;;;;5115015;28;19994;-58
2022/06/26 08:16:25;;;;;;;17.00;5.93;;;29.80;64.00;;;;;;5114829;28;20429;-58
2022/06/26 08:18:51;;;;;;;14.50;5.70;;;29.80;59.50;;;;;;5115007;28;20024;-57
2022/06/26 08:24:01;;;;;;;19.05;6.50;;;29.60;59.00;;;;;;5114791;28;20023;-58
2022/06/26 08:26:27;;;;;;;13.55;6.07;;;30.10;60.70;;;;;;5114867;28;20080;-58
2022/06/26 08:28:53;;;;;;;15.60;6.30;;;29.60;56.80;;;;;;5113519;28;20043;-58
2022/06/26 08:31:19;;;;;;;12.05;5.38;;;29.90;58.70;;;;;;5114924;28;20056;-58
2022/06/26 08:33:45;;;;;;;11.57;5.10;;;30.00;58.90;;;;;;5114875;28;20028;-58
2022/06/26 08:36:11;;;;;;;19.20;5.45;;;30.20;57.90;;;;;;5114784;28;20090;-58
2022/06/26 08:38:37;;;;;;;11.80;5.38;;;30.50;58.60;;;;;;5114738;28;20023;-58
2022/06/26 08:41:03;;;;;;;11.27;4.88;;;30.90;63.40;;;;;;5114815;28;20487;-58
2022/06/26 08:43:29;;;;;;;11.88;5.30;;;31.20;57.50;;;;;;5114457;28;20125;-57
2022/06/26 08:45:56;;;;;;;13.13;5.30;;;30.80;55.30;;;;;;5114729;28;20357;-58
2022/06/26 08:48:27;;;;;;;13.40;5.72;;;30.40;55.50;;;;;;5114779;28;20024;-57
2022/06/26 08:50:53;;;;;;;13.15;4.97;;;30.30;56.00;;;;;;5114624;28;20028;-57
2022/06/26 08:53:20;;;;;;;10.98;5.05;;;30.70;57.10;;;;;;5114656;28;20031;-58
2022/06/26 08:55:46;;;;;;;12.73;5.13;;;31.10;56.60;;;;;;5114569;28;20034;-58
2022/06/26 08:58:12;;;;;;;11.38;4.70;;;31.60;59.90;;;;;;5114753;28;20043;-58
2022/06/26 09:00:38;;;;;;;13.27;4.70;;;31.70;54.40;;;;;;5114627;28;20055;-57
2022/06/26 09:03:04;;;;;;;14.10;5.57;;;32.00;57.20;;;;;;5114490;28;20031;-58
2022/06/26 09:05:30;;;;;;;14.50;6.13;;;32.20;53.60;;;;;;5114502;28;20023;-58
2022/06/26 09:07:58;;;;;;;14.15;5.50;;;32.40;52.40;;;;;;5114426;28;20024;-58
2022/06/26 09:10:28;;;;;;;18.55;6.93;;;32.30;51.60;;;;;;5116952;28;20033;-58
2022/06/26 09:12:57;;;;;;;15.18;5.13;;;32.10;53.20;;;;;;5118168;28;20122;-58
2022/06/26 09:15:26;;;;;;;20.38;5.80;;;32.20;53.10;;;;;;5118236;28;20091;-58
2022/06/26 09:18:04;;;;;;;31.70;8.90;;;32.20;51.50;;;;;;5118181;28;20065;-58
2022/06/26 09:20:31;;;;;;;27.42;8.55;;;32.10;49.20;;;;;;5118053;28;20080;-58
2022/06/26 09:22:59;;;;;;;25.30;7.40;;;32.40;49.20;;;;;;5117872;28;20076;-58
2022/06/26 09:25:34;;;;;;;25.65;8.45;;;32.40;49.20;;;;;;5117729;28;20599;-58
2022/06/26 09:28:08;;;;;;;24.42;7.47;;;32.70;51.80;;;;;;5117819;28;20035;-58
2022/06/26 09:30:44;;;;;;;25.13;7.72;;;33.20;50.80;;;;;;5117793;28;20059;-58
2022/06/26 09:33:10;;;;;;;23.00;8.10;;;33.20;48.80;;;;;;5117768;28;20066;-58
2022/06/26 09:35:36;;;;;;;25.02;7.28;;;33.20;50.00;;;;;;5117675;28;20024;-58
2022/06/26 09:38:03;;;;;;;19.83;7.22;;;33.00;48.70;;;;;;5117930;28;20024;-58
2022/06/26 09:40:29;;;;;;;20.60;6.35;;;32.50;48.70;;;;;;5117702;28;20036;-58
2022/06/26 09:42:56;;;;;;;13.05;5.20;;;32.80;48.60;;;;;;5117508;28;20411;-58
2022/06/26 09:45:22;;;;;;;19.92;5.75;;;32.70;48.20;;;;;;5117532;28;20039;-58
2022/06/26 09:47:48;;;;;;;22.05;6.65;;;32.10;48.10;;;;;;5117859;28;20016;-58
2022/06/26 09:50:15;;;;;;;27.98;7.43;;;32.50;48.80;;;;;;5117320;28;20028;-58
2022/06/26 09:52:43;;;;;;;23.17;5.65;;;31.70;49.80;;;;;;5117511;28;20028;-58
2022/06/26 09:55:09;;;;;;;16.10;5.30;;;32.10;49.20;;;;;;5117432;28;20106;-59
2022/06/26 09:57:36;;;;;;;11.80;4.80;;;33.00;52.60;;;;;;5117112;28;20434;-58
2022/06/26 10:00:04;;;;;;;13.68;4.97;;;33.50;47.50;;;;;;5117352;28;20023;-58
2022/06/26 10:08:19;;;;;;;15.60;5.07;;;34.00;49.10;;;;;;5117152;28;20043;-58
2022/06/26 10:10:46;;;;;;;16.17;4.95;;;33.80;44.40;;;;;;5117025;28;20023;-58
2022/06/26 10:13:12;;;;;;;18.65;5.78;;;33.80;45.50;;;;;;5116924;28;20043;-58
2022/06/26 10:15:49;;;;;;;18.77;6.25;;;33.90;44.40;;;;;;5117030;28;20034;-58
2022/06/26 10:18:29;;;;;;;22.85;6.65;;;33.90;44.30;;;;;;5116990;28;20054;-58
2022/06/26 10:20:58;;;;;;;20.73;6.55;;;33.60;45.40;;;;;;5116960;28;20047;-58
2022/06/26 10:23:34;;;;;;;12.23;5.55;;;33.40;45.00;;;;;;5116856;28;20084;-58
2022/06/26 10:26:21;;;;;;;12.82;4.75;;;33.50;47.10;;;;;;5116719;28;20023;-58
2022/06/26 10:29:08;;;;;;;12.07;5.38;;;33.60;44.70;;;;;;5116663;28;20026;-58
2022/06/26 10:31:50;;;;;;;8.75;4.25;;;33.20;44.90;;;;;;5116630;28;20030;-58
2022/06/26 10:34:23;;;;;;;13.30;3.88;;;33.20;45.80;;;;;;5116570;28;20358;-58
2022/06/26 10:37:04;;;;;;;7.85;3.40;;;33.00;44.60;;;;;;5116429;28;20038;-58
2022/06/26 10:39:42;;;;;;;8.38;3.30;;;32.60;46.10;;;;;;5116434;28;20024;-58
2022/06/26 10:45:20;;;;;;;7.18;3.63;;;33.30;44.40;;;;;;5116405;28;20250;-58
2022/06/26 10:48:01;;;;;;;5.75;3.03;;;33.50;44.40;;;;;;5116349;28;20036;-58
2022/06/26 10:50:27;;;;;;;9.98;3.47;;;33.40;42.20;;;;;;5116207;28;20388;-58
2022/06/26 10:53:11;;;;;;;9.90;4.10;;;33.20;44.80;;;;;;5116314;28;20480;-57
2022/06/26 10:55:42;;;;;;;11.98;4.15;;;32.60;45.60;;;;;;5116155;28;20468;-58
2022/06/26 10:58:09;;;;;;;9.68;4.32;;;32.40;48.70;;;;;;5116082;28;20031;-58
2022/06/26 11:00:35;;;;;;;9.80;4.03;;;32.60;49.40;;;;;;5115897;28;20472;-58
2022/06/26 11:03:11;;;;;;;16.52;5.38;;;33.00;49.20;;;;;;5115747;28;20023;-58
2022/06/26 11:05:37;;;;;;;8.82;3.85;;;32.80;48.80;;;;;;5115979;28;20020;-58
2022/06/26 11:08:03;;;;;;;9.60;3.70;;;33.30;50.50;;;;;;5115873;28;20385;-58
2022/06/26 11:10:29;;;;;;;7.18;3.67;;;33.70;48.30;;;;;;5115841;28;20023;-57
2022/06/26 11:12:55;;;;;;;8.88;3.72;;;34.30;47.10;;;;;;5115594;28;20508;-58
2022/06/26 11:15:34;;;;;;;15.30;3.92;;;34.80;46.40;;;;;;5115716;28;20077;-58
2022/06/26 11:18:04;;;;;;;12.80;3.70;;;35.00;44.00;;;;;;5115783;28;20038;-58
2022/06/26 11:20:49;;;;;;;6.40;3.53;;;35.20;44.30;;;;;;5115706;28;20035;-58
2022/06/26 11:23:35;;;;;;;7.53;4.63;;;35.50;43.60;;;;;;5115417;28;20027;-58
2022/06/26 11:26:03;;;;;;;12.18;5.82;;;35.70;40.90;;;;;;5115449;28;20107;-58
2022/06/26 11:28:38;;;;;;;11.73;5.72;;;35.80;41.40;;;;;;5115504;28;20087;-58
2022/06/26 11:31:06;;;;;;;12.45;6.03;;;36.20;42.10;;;;;;5115580;28;20401;-58
2022/06/26 11:33:34;;;;;;;8.68;5.22;;;36.20;40.50;;;;;;5114928;28;20381;-58
2022/06/26 11:36:12;;;;;;;11.48;6.13;;;35.90;41.70;;;;;;5115452;28;20053;-58
2022/06/26 11:38:39;;;;;;;12.00;6.43;;;35.20;40.60;;;;;;5115434;28;20071;-58
2022/06/26 11:41:08;;;;;;;10.95;4.75;;;34.60;41.50;;;;;;5115338;28;20035;-58
2022/06/26 11:43:35;;;;;;;14.13;4.63;;;33.30;44.20;;;;;;5115315;28;20058;-57
2022/06/26 11:46:04;;;;;;;8.95;4.72;;;32.80;45.60;;;;;;5115262;28;20054;-58
2022/06/26 11:48:31;;;;;;;13.88;4.70;;;33.30;46.50;;;;;;5115275;28;20030;-58
2022/06/26 11:50:58;;;;;;;8.90;4.15;;;33.20;45.00;;;;;;5115242;28;20024;-58
2022/06/26 11:53:32;;;;;;;10.98;5.10;;;32.80;48.60;;;;;;5115126;28;20135;-58
2022/06/26 11:56:01;;;;;;;10.70;4.57;;;33.00;47.40;;;;;;5115268;28;20035;-58
2022/06/26 11:58:31;;;;;;;8.48;4.35;;;32.70;45.60;;;;;;5115131;28;20027;-58
2022/06/26 12:01:11;;;;;;;11.75;5.00;;;31.80;48.40;;;;;;5115027;28;20059;-58
2022/06/26 12:03:46;;;;;;;8.55;3.95;;;32.10;49.30;;;;;;5114887;28;20028;-58
2022/06/26 12:06:25;;;;;;;15.65;5.30;;;32.40;48.20;;;;;;5115014;28;20024;-58
2022/06/26 12:08:51;;;;;;;9.65;4.70;;;32.40;46.70;;;;;;5115085;28;20081;-58
2022/06/26 12:11:17;;;;;;;6.50;4.00;;;32.70;47.20;;;;;;5114746;28;20024;-58
2022/06/26 12:13:43;;;;;;;10.93;4.72;;;33.00;48.90;;;;;;5114928;28;20035;-58
2022/06/26 12:16:11;;;;;;;9.93;4.75;;;33.10;49.70;;;;;;5114793;28;20031;-57
2022/06/26 12:18:40;;;;;;;9.68;4.22;;;33.20;47.00;;;;;;5115006;28;20072;-57
2022/06/26 12:21:20;;;;;;;11.73;4.30;;;33.10;49.00;;;;;;5115004;28;20036;-57
2022/06/26 12:23:48;;;;;;;10.60;5.07;;;32.90;48.10;;;;;;5114771;28;20035;-58
2022/06/26 12:26:18;;;;;;;10.32;5.00;;;32.60;47.40;;;;;;5114867;28;20113;-57
2022/06/26 12:28:49;;;;;;;9.10;4.57;;;31.90;46.60;;;;;;5114800;28;20028;-58
2022/06/26 12:31:17;;;;;;;14.00;5.72;;;31.80;47.60;;;;;;5114759;28;20024;-58
2022/06/26 12:33:43;;;;;;;15.68;5.68;;;32.20;48.60;;;;;;5114806;28;20024;-58
2022/06/26 12:36:09;;;;;;;9.65;5.05;;;32.20;50.90;;;;;;5114814;28;20036;-57
2022/06/26 12:38:36;;;;;;;9.68;5.30;;;32.10;49.90;;;;;;5114895;28;20059;-58
2022/06/26 12:41:04;;;;;;;11.52;5.32;;;32.00;48.80;;;;;;5114579;28;20031;-58
2022/06/26 12:43:30;;;;;;;7.88;3.95;;;32.00;48.60;;;;;;5114677;28;20055;-57
2022/06/26 12:45:57;;;;;;;11.00;4.70;;;32.20;49.50;;;;;;5118222;28;20106;-58
2022/06/26 12:48:23;;;;;;;15.35;5.30;;;33.10;48.40;;;;;;5118748;28;20031;-58
2022/06/26 12:50:49;;;;;;;9.70;4.40;;;32.90;45.50;;;;;;5118567;28;20066;-58
2022/06/26 12:53:15;;;;;;;8.32;3.92;;;33.20;49.00;;;;;;5118416;28;20028;-58
2022/06/26 12:55:41;;;;;;;11.88;4.78;;;33.60;44.50;;;;;;5118555;28;20066;-58
2022/06/26 12:58:07;;;;;;;8.82;4.05;;;33.50;46.20;;;;;;5118414;28;20038;-58
2022/06/26 13:00:33;;;;;;;9.18;3.95;;;34.10;47.10;;;;;;5118415;28;20032;-57
2022/06/26 13:02:58;;;;;;;9.32;4.43;;;33.90;44.10;;;;;;5118318;28;20063;-58
2022/06/26 13:05:24;;;;;;;9.95;4.80;;;32.80;45.30;;;;;;5118324;28;20036;-58